Roseau, MN

8:38 AM CDT on July 05, 2015 (GMT -0500)
Roseau Municipal-Billberg | | Change Station
CLOSE
Current Station
Airport
Location: Roseau,
Elevation: 1060 ft
Nearby Weather Stations

Elev 1060 ft 48.86 °N, 95.70 °W | Updated 3 minutes ago

Rain
Rain
66 °F
Feels Like 66 °F
N
6
Wind Variable Wind from North

Today
High -- | Low -- °F
--% Chance of Precip.
Yesterday
High -- | Low -- °F
Precip. -- in
5:26 AM 9:28 PM
Waning Gibbous, 85% visible
Pressure 29.79 in
Visibility 3.0 miles
Clouds Scattered Clouds 1100 ft
Scattered Clouds 1700 ft
Mostly Cloudy 2800 ft
Dew Point 61 °F
Humidity 83%
Rainfall 1.81 in
Snow Depth Not available.
UV 1 out of 12
Pollen 2.20 out of 12
Air Quality Not available.
Flu Activity Not available.
METAR KROX 051335Z AUTO 35005KT 3SM +RA SCT011 SCT017 BKN028 19/16 A2979 RMK AO2 P0004 LTG DSNT SW AND W

More Conditions Fewer Conditions

Pressure 29.79 in
Visibility 3.0 miles
Clouds Scattered Clouds 1100 ft
Scattered Clouds 1700 ft
Mostly Cloudy 2800 ft
Dew Point 61 °F
Humidity 83%
Rainfall 1.81 in
Snow Depth Not available.
UV 1 out of 12
Pollen 2.20 out of 12
Air Quality Not available.
Flu Activity Not available.
METAR KROX 051335Z AUTO 35005KT 3SM +RA SCT011 SCT017 BKN028 19/16 A2979 RMK AO2 P0004 LTG DSNT SW AND W

More Conditions Fewer Conditions

10-Day Weather Forecast

×

Almanac

Astronomy

Jul. 05, 2015 Rise Set
Actual Time
Civil Twilight
Nautical Twilight
Astronomical Twilight
Moon
Length of Visible Light
Length of Day
Tomorrow will be .
, % of the Moon is Illuminated

Today's Extremes

State Highs State Lows

Community

WunderPhotos

Upload Photos

1,835,258 photos uploaded!

WunderBlogs® & News

Nearby

Air Quality

  Air Quality AQ Index Pollutant
Not available.

Snow Depth

Station Depth Elevation

Earthquake Activity

City Distance Mag. Time & Date
Minimum magnitude displayed is 2.5.

Coastal Water Temperatures

Place Temperature

Stations

Nearby Weather Stations

Station Location Temp. Windchill Dew Point Humidity Wind Precip. Elev Updated Type